»·PEaware :: SKY123 KPRC-KHII

SKY123 :: KPRC-KHII

FLIGHT INFORMATION

Flight Status: Arrived
Operator:
Sky High Charters
More flights by this operator :: More flights under this callsign
Pilot: Keith G. (35160)
Aircraft: CESSNA 208 CARAVAN
(C208)
More flights by this aircraft type
Origin: KPRC Love
United States
Destination: KHII Lake Havasu City
United States
More flights between these airports :: More routes between these airports
Route: WNSKI2 MUMTE V12 EED
File this flight plan on PilotEdge
Remarks:
Altitude:
(Current/Filed)
10,000ft
Speed:
(Current/Filed)
160kts
Departed: 21-May-23 09:59 AM
Arrived: 21-May-23 10:58 AM
Distance/Time
Traveled:
96nm/0:59
Distance/Time
To Go:
Arrived

Flight Plot

Page will automatically refresh every two minutes.

Flight plan parsing failed; only flown route is shown


Map Options




Map Legend


Flown Route
Filed Route
Departure Airport
Arrival Airport
Navaid (VOR, NDB)
Fix

Horizontal Profiles

Position Reports

Time Latitude Longitude Heading Altitude Ground
Speed
21-May-23 09:53 34.658118 -112.412847 45 4981ft 0kts
21-May-23 09:54 34.658118 -112.412847 45 4981ft 0kts
21-May-23 09:55 34.658118 -112.412847 45 4981ft 0kts
21-May-23 09:56 34.661445 -112.409629 269 4962ft 0kts
21-May-23 09:57 34.662030 -112.411256 290 4963ft 17kts
21-May-23 09:58 34.646975 -112.427009 217 5354ft 122kts
21-May-23 09:59 34.621280 -112.427436 87 6773ft 127kts
21-May-23 10:00 34.636959 -112.390723 94 8103ft 127kts
21-May-23 10:01 34.616812 -112.357059 128 9450ft 123kts
21-May-23 10:02 34.591672 -112.322409 129 9997ft 157kts
21-May-23 10:03 34.562462 -112.281051 134 10030ft 163kts
21-May-23 10:04 34.525546 -112.280404 224 9961ft 167kts
21-May-23 10:05 34.489915 -112.315672 231 9963ft 166kts
21-May-23 10:06 34.471185 -112.366003 255 9995ft 164kts
21-May-23 10:07 34.463961 -112.421002 260 10000ft 165kts
21-May-23 10:08 34.450975 -112.474269 254 10022ft 164kts
21-May-23 10:09 34.452820 -112.529041 285 10013ft 165kts
21-May-23 10:10 34.471984 -112.579539 295 10018ft 165kts
21-May-23 10:11 34.487561 -112.631627 286 10033ft 165kts
21-May-23 10:12 34.509083 -112.680512 311 10039ft 165kts
21-May-23 10:13 34.545538 -112.713796 327 10051ft 165kts
21-May-23 10:14 34.582238 -112.747533 325 9999ft 167kts
21-May-23 10:15 34.624469 -112.769914 347 9999ft 166kts
21-May-23 10:16 34.669854 -112.779132 353 9994ft 166kts
21-May-23 10:17 34.706837 -112.803948 273 9898ft 168kts
21-May-23 10:18 34.715508 -112.858410 286 9970ft 164kts
21-May-23 10:19 34.720476 -112.913106 272 10024ft 164kts
21-May-23 10:20 34.721220 -112.968470 272 10098ft 163kts
21-May-23 10:21 34.723178 -113.023547 272 10181ft 163kts
21-May-23 10:22 34.725130 -113.078688 272 10262ft 163kts
21-May-23 10:23 34.727218 -113.137598 273 10111ft 191kts
21-May-23 10:24 34.729526 -113.204763 274 10004ft 198kts
21-May-23 10:25 34.731747 -113.271352 274 9996ft 197kts
21-May-23 10:26 34.733935 -113.337215 273 9995ft 195kts
21-May-23 10:27 34.736085 -113.403338 273 9995ft 195kts
21-May-23 10:28 34.738159 -113.467757 273 10000ft 189kts
21-May-23 10:29 34.740130 -113.530787 274 9991ft 182kts
21-May-23 10:30 34.742184 -113.593648 274 9999ft 187kts
21-May-23 10:31 34.744119 -113.657108 273 10002ft 189kts
21-May-23 10:32 34.746042 -113.721177 273 10003ft 190kts
21-May-23 10:33 34.747966 -113.785748 273 10007ft 191kts
21-May-23 10:34 34.749832 -113.850386 273 10013ft 189kts
21-May-23 10:35 34.751632 -113.914476 273 10001ft 189kts
21-May-23 10:36 34.753399 -113.978306 273 9995ft 189kts
21-May-23 10:37 34.755162 -114.042271 273 9998ft 188kts
21-May-23 10:38 34.756871 -114.106143 273 9997ft 189kts
21-May-23 10:39 34.758541 -114.169829 273 9995ft 188kts
21-May-23 10:40 34.760200 -114.233022 272 9992ft 177kts
21-May-23 10:41 34.761578 -114.288912 272 9888ft 161kts
21-May-23 10:42 34.763020 -114.345552 272 9009ft 170kts
21-May-23 10:43 34.764421 -114.402949 272 8104ft 168kts
21-May-23 10:44 34.765671 -114.456608 272 7257ft 150kts
21-May-23 10:45 34.774172 -114.503440 305 6680ft 141kts
21-May-23 10:46 34.807682 -114.526201 349 6194ft 143kts
21-May-23 10:47 34.847650 -114.534325 11 5705ft 146kts
21-May-23 10:48 34.853314 -114.496311 148 5230ft 146kts
21-May-23 10:49 34.814401 -114.485671 169 5005ft 143kts
21-May-23 10:50 34.774197 -114.476141 169 5009ft 149kts
21-May-23 10:51 34.733589 -114.461488 162 4543ft 150kts
21-May-23 10:52 34.696877 -114.446884 162 3712ft 133kts
21-May-23 10:53 34.665264 -114.431494 148 2953ft 119kts
21-May-23 10:54 34.637561 -114.410669 145 2244ft 115kts
21-May-23 10:55 34.613447 -114.389323 147 1605ft 95kts
21-May-23 10:56 34.591115 -114.372488 149 1066ft 92kts
21-May-23 10:57 34.572598 -114.359346 147 775ft 39kts
21-May-23 10:58 34.562839 -114.353743 147 787ft 31kts
21-May-23 10:59 34.561291 -114.353020 117 789ft 0kts
21-May-23 11:00 34.561291 -114.353020 117 789ft 0kts
21-May-23 11:01 34.561291 -114.353020 117 789ft 0kts
21-May-23 11:02 34.561291 -114.353020 117 789ft 0kts
21-May-23 11:03 34.561291 -114.353020 117 789ft 0kts
21-May-23 11:04 34.561291 -114.353020 117 789ft 0kts
21-May-23 11:05 34.561291 -114.353020 117 789ft 0kts
21-May-23 11:06 34.561291 -114.353020 117 789ft 0kts
21-May-23 11:07 34.561291 -114.353020 117 789ft 0kts
21-May-23 11:08 34.561291 -114.353020 117 789ft 0kts
21-May-23 11:09 34.561291 -114.353020 117 789ft 0kts
21-May-23 11:10 34.561291 -114.353020 117 789ft 0kts
21-May-23 11:11 34.561291 -114.353020 117 789ft 0kts

Navigation Log

Ident Type
Flight plan parsing failed, navigation log unavailable